createdAt,value
2023-03-17T00:01:55.008Z,100093.50
2023-03-17T00:04:24.593Z,100098.69
2023-03-17T00:06:52.945Z,100085.72
2023-03-17T00:09:22.313Z,100091.78
2023-03-17T00:11:50.825Z,100091.78
2023-03-17T00:14:19.702Z,100096.97
2023-03-17T00:16:52.586Z,100095.22
2023-03-17T00:19:28.840Z,100095.25
2023-03-17T00:21:56.195Z,100089.16
2023-03-17T00:24:23.608Z,100090.03
2023-03-17T00:26:50.643Z,100094.37
2023-03-17T00:29:17.757Z,100083.16
2023-03-17T00:31:45.711Z,100082.25
2023-03-17T00:34:18.352Z,100080.53
2023-03-17T00:36:49.705Z,100083.12
2023-03-17T00:39:17.286Z,100080.56
2023-03-17T00:41:44.656Z,100084.84
2023-03-17T00:44:12.281Z,100082.28
2023-03-17T00:46:41.632Z,100078.78
2023-03-17T00:49:19.366Z,100077.94
2023-03-17T00:51:47.601Z,100070.13
2023-03-17T00:54:15.683Z,100072.75
2023-03-17T00:56:44.294Z,100064.94
2023-03-17T00:59:19.464Z,100072.75
2023-03-17T01:01:48.080Z,100076.22
2023-03-17T01:04:15.765Z,100074.47
2023-03-17T01:06:43.351Z,100073.59
2023-03-17T01:09:18.601Z,100074.47
2023-03-17T01:11:47.033Z,100076.19
2023-03-17T01:14:15.309Z,100075.34
2023-03-17T01:16:42.799Z,100077.06
2023-03-17T01:19:13.125Z,100076.19
2023-03-17T01:21:40.787Z,100080.53
2023-03-17T01:24:08.360Z,100075.34
2023-03-17T01:26:36.075Z,100077.91
2023-03-17T01:29:04.787Z,100081.37
2023-03-17T01:31:32.219Z,100076.19
2023-03-17T01:33:59.837Z,100080.50
2023-03-17T01:36:26.890Z,100077.91
2023-03-17T01:38:53.923Z,100072.69
2023-03-17T01:41:23.209Z,100068.38
2023-03-17T01:43:50.281Z,100072.66
2023-03-17T01:46:35.331Z,100066.59
2023-03-17T01:49:24.992Z,100073.50
2023-03-17T01:51:55.291Z,100080.41
2023-03-17T01:54:45.210Z,100083.00
2023-03-17T01:57:18.028Z,100074.37
2023-03-17T01:59:55.956Z,100069.19
2023-03-17T02:02:28.935Z,100063.13
2023-03-17T02:04:57.882Z,100057.03
2023-03-17T02:07:26.815Z,100063.94
2023-03-17T02:09:56.062Z,100062.22
2023-03-17T02:12:25.369Z,100069.12
2023-03-17T02:14:52.921Z,100078.59
2023-03-17T02:17:22.984Z,100085.47
2023-03-17T02:19:50.545Z,100098.44
2023-03-17T02:22:19.429Z,100107.16
2023-03-17T02:24:57.071Z,100102.00
2023-03-17T02:27:35.509Z,100108.00
2023-03-17T02:30:06.382Z,100104.50
2023-03-17T02:32:36.842Z,100113.16
2023-03-17T02:35:07.152Z,100110.66
2023-03-17T02:37:37.698Z,100102.94
2023-03-17T02:40:07.201Z,100115.00
2023-03-17T02:42:36.060Z,100115.78
2023-03-17T02:45:07.269Z,100116.62
2023-03-17T02:47:35.644Z,100112.28
2023-03-17T02:50:04.759Z,100100.19
2023-03-17T02:52:32.306Z,100101.91
2023-03-17T02:54:59.810Z,100101.00
2023-03-17T02:57:26.916Z,100103.59
2023-03-17T02:59:54.025Z,100106.25
2023-03-17T03:02:21.554Z,100104.53
2023-03-17T03:04:48.748Z,100106.22
2023-03-17T03:07:16.194Z,100107.91
2023-03-17T03:09:43.708Z,100105.31
2023-03-17T03:12:11.313Z,100110.50
2023-03-17T03:14:38.435Z,100110.50
2023-03-17T03:17:05.820Z,100106.19
2023-03-17T03:19:32.969Z,100101.81
2023-03-17T03:22:00.268Z,100101.81
2023-03-17T03:24:27.974Z,100089.75
2023-03-17T03:26:55.136Z,100096.66
2023-03-17T03:29:22.215Z,100097.47
2023-03-17T03:31:49.667Z,100090.53
2023-03-17T03:34:16.746Z,100098.37
2023-03-17T03:36:43.871Z,100096.66
2023-03-17T03:39:14.197Z,100094.13
2023-03-17T03:41:42.082Z,100094.09
2023-03-17T03:44:09.196Z,100090.59
2023-03-17T03:46:36.633Z,100095.72
2023-03-17T03:49:03.788Z,100106.91
2023-03-17T03:51:31.016Z,100098.22
2023-03-17T03:53:58.429Z,100096.53
2023-03-17T03:56:25.588Z,100093.19
2023-03-17T03:58:52.722Z,100081.09
2023-03-17T04:01:20.142Z,100082.75
2023-03-17T04:03:47.539Z,100092.25
2023-03-17T04:06:14.866Z,100087.06
2023-03-17T04:08:42.056Z,100082.84
2023-03-17T04:11:09.542Z,100082.84
2023-03-17T04:13:36.590Z,100084.53
2023-03-17T04:16:03.688Z,100083.63
2023-03-17T04:18:31.736Z,100078.44
2023-03-17T04:20:58.791Z,100083.69
2023-03-17T04:23:25.895Z,100082.81
2023-03-17T04:25:54.015Z,100086.19
2023-03-17T04:28:22.504Z,100083.59
2023-03-17T04:30:49.600Z,100087.19
2023-03-17T04:33:17.254Z,100085.47
2023-03-17T04:35:44.390Z,100076.81
2023-03-17T04:38:14.627Z,100085.44
2023-03-17T04:40:42.246Z,100086.28
2023-03-17T04:43:10.331Z,100098.37
2023-03-17T04:45:37.651Z,100088.88
2023-03-17T04:48:05.904Z,100084.53
2023-03-17T04:50:33.551Z,100086.25
2023-03-17T04:53:00.813Z,100092.34
2023-03-17T04:55:28.177Z,100100.12
2023-03-17T04:57:55.168Z,100102.78
2023-03-17T05:00:22.443Z,100100.12
2023-03-17T05:02:49.747Z,100104.41
2023-03-17T05:05:16.893Z,100105.34
2023-03-17T05:07:44.871Z,100105.37
2023-03-17T05:10:12.630Z,100103.62
2023-03-17T05:12:39.816Z,100112.34
2023-03-17T05:15:07.389Z,100108.03
2023-03-17T05:17:34.817Z,100109.75
2023-03-17T05:20:01.832Z,100110.72
2023-03-17T05:22:28.878Z,100111.69
2023-03-17T05:24:56.175Z,100109.97
2023-03-17T05:27:23.296Z,100113.38
2023-03-17T05:29:50.342Z,100111.50
2023-03-17T05:32:18.358Z,100100.00
2023-03-17T05:34:46.340Z,100111.97
2023-03-17T05:37:14.152Z,100116.19
2023-03-17T05:39:42.153Z,100111.69
2023-03-17T05:42:09.472Z,100122.09
2023-03-17T05:44:36.564Z,100123.75
2023-03-17T05:47:03.981Z,100114.94
2023-03-17T05:49:31.184Z,100099.22
2023-03-17T05:51:58.840Z,100096.62
2023-03-17T05:54:26.166Z,100096.62
2023-03-17T05:56:53.163Z,100099.91
2023-03-17T05:59:20.631Z,100105.03
2023-03-17T06:01:47.902Z,100104.84
2023-03-17T06:04:15.654Z,100102.63
2023-03-17T06:06:42.762Z,100105.97
2023-03-17T06:09:09.768Z,100103.66
2023-03-17T06:11:38.201Z,100105.13
2023-03-17T06:14:05.309Z,100099.56
2023-03-17T06:16:33.281Z,100106.31
2023-03-17T06:19:01.234Z,100106.81
2023-03-17T06:21:28.423Z,100107.84
2023-03-17T06:23:55.716Z,100107.38
2023-03-17T06:26:23.046Z,100113.41
2023-03-17T06:28:50.084Z,100115.59
2023-03-17T06:31:17.947Z,100115.09
2023-03-17T06:33:45.328Z,100110.81
2023-03-17T06:36:12.413Z,100123.38
2023-03-17T06:38:40.106Z,100117.09
2023-03-17T06:41:07.554Z,100123.38
2023-03-17T06:43:35.322Z,100135.91
2023-03-17T06:46:02.430Z,100123.56
2023-03-17T06:48:29.861Z,100129.47
2023-03-17T06:50:57.204Z,100128.19
2023-03-17T06:53:24.303Z,100126.31
2023-03-17T06:55:51.661Z,100136.63
2023-03-17T06:58:20.464Z,100139.34
2023-03-17T07:00:48.997Z,100132.59
2023-03-17T07:03:16.912Z,100138.47
2023-03-17T07:05:43.947Z,100141.31
2023-03-17T07:08:11.540Z,100137.19
2023-03-17T07:10:43.466Z,100144.72
2023-03-17T07:13:10.491Z,100145.44
2023-03-17T07:15:38.311Z,100150.53
2023-03-17T07:18:07.027Z,100150.28
2023-03-17T07:20:34.215Z,100152.94
2023-03-17T07:23:01.376Z,100158.47
2023-03-17T07:25:28.963Z,100155.94
2023-03-17T07:27:56.671Z,100155.91
2023-03-17T07:30:23.688Z,100152.16
2023-03-17T07:32:51.146Z,100148.94
2023-03-17T07:35:19.250Z,100158.87
2023-03-17T07:37:47.368Z,100154.44
2023-03-17T07:40:14.773Z,100158.75
2023-03-17T07:42:42.238Z,100161.25
2023-03-17T07:45:10.042Z,100160.94
2023-03-17T07:47:37.561Z,100160.91
2023-03-17T07:50:05.900Z,100166.81
2023-03-17T07:52:32.969Z,100167.34
2023-03-17T07:55:00.353Z,100161.88
2023-03-17T07:57:27.490Z,100164.00
2023-03-17T07:59:54.730Z,100172.28
2023-03-17T08:02:22.285Z,100167.53
2023-03-17T08:04:50.541Z,100166.59
2023-03-17T08:07:18.391Z,100169.00
2023-03-17T08:09:46.511Z,100168.03
2023-03-17T08:12:14.667Z,100166.28
2023-03-17T08:14:41.745Z,100163.56
2023-03-17T08:17:08.925Z,100167.22
2023-03-17T08:19:36.458Z,100157.66
2023-03-17T08:22:03.572Z,100153.22
2023-03-17T08:24:30.897Z,100159.59
2023-03-17T08:27:00.787Z,100157.19
2023-03-17T08:29:29.033Z,100151.16
2023-03-17T08:31:56.924Z,100150.47
2023-03-17T08:34:24.695Z,100160.00
2023-03-17T08:36:54.547Z,100155.31
2023-03-17T08:39:21.585Z,100151.31
2023-03-17T08:41:49.109Z,100159.69
2023-03-17T08:44:16.589Z,100155.41
2023-03-17T08:46:43.729Z,100143.59
2023-03-17T08:49:12.686Z,100152.87
2023-03-17T08:51:39.953Z,100156.72
2023-03-17T08:54:07.908Z,100152.81
2023-03-17T08:56:37.012Z,100148.94
2023-03-17T08:59:06.031Z,100149.28
2023-03-17T09:01:34.764Z,100154.47
2023-03-17T09:04:02.841Z,100149.91
2023-03-17T09:06:30.277Z,100151.28
2023-03-17T09:08:57.379Z,100153.13
2023-03-17T09:11:27.620Z,100160.19
2023-03-17T09:13:55.654Z,100152.94
2023-03-17T09:16:23.897Z,100162.13
2023-03-17T09:18:51.862Z,100152.50
2023-03-17T09:21:19.659Z,100141.56
2023-03-17T09:23:46.996Z,100140.12
2023-03-17T09:26:14.812Z,100145.44
2023-03-17T09:28:45.090Z,100147.47
2023-03-17T09:31:12.990Z,100129.69
2023-03-17T09:33:41.818Z,100140.12
2023-03-17T09:36:10.502Z,100137.22
2023-03-17T09:38:38.549Z,100131.75
2023-03-17T09:41:08.629Z,100129.44
2023-03-17T09:44:02.808Z,100129.97
2023-03-17T09:46:42.667Z,100129.34
2023-03-17T09:49:20.650Z,100128.97
2023-03-17T09:51:49.478Z,100126.69
2023-03-17T09:54:25.995Z,100129.75
2023-03-17T09:57:06.102Z,100120.41
2023-03-17T09:59:42.000Z,100111.50
2023-03-17T10:02:17.959Z,100114.44
2023-03-17T10:04:46.290Z,100108.63
2023-03-17T10:07:17.887Z,100112.06
2023-03-17T10:10:02.985Z,100119.47
2023-03-17T10:12:39.179Z,100120.19
2023-03-17T10:15:18.513Z,100120.66
2023-03-17T10:17:47.339Z,100110.03
2023-03-17T10:20:21.799Z,100115.28
2023-03-17T10:22:54.803Z,100109.19
2023-03-17T10:25:34.376Z,100110.09
2023-03-17T10:28:13.569Z,100107.69
2023-03-17T10:30:41.166Z,100096.34
2023-03-17T10:33:08.596Z,100089.53
2023-03-17T10:35:39.453Z,100093.34
2023-03-17T10:38:23.729Z,100085.63
2023-03-17T10:41:02.984Z,100082.19
2023-03-17T10:43:36.361Z,100080.56
2023-03-17T10:46:06.781Z,100076.03
2023-03-17T10:48:38.590Z,100075.06
2023-03-17T10:51:09.781Z,100079.50
2023-03-17T10:53:43.395Z,100076.41
2023-03-17T10:56:23.536Z,100077.00
2023-03-17T10:58:52.630Z,100070.06
2023-03-17T11:01:29.738Z,100067.63
2023-03-17T11:03:58.002Z,100065.25
2023-03-17T11:06:37.053Z,100060.81
2023-03-17T11:09:19.520Z,100055.97
2023-03-17T11:11:50.164Z,100059.09
2023-03-17T11:14:19.353Z,100036.47
2023-03-17T11:16:53.362Z,100036.81
2023-03-17T11:19:28.854Z,100037.25
2023-03-17T11:22:24.880Z,100034.38
2023-03-17T11:25:09.612Z,100043.25
2023-03-17T11:28:08.034Z,100041.13
2023-03-17T11:30:47.737Z,100032.06
2023-03-17T11:33:49.913Z,100033.00
2023-03-17T11:36:33.539Z,100024.19
2023-03-17T11:39:08.939Z,100033.84
2023-03-17T11:41:44.867Z,100024.13
2023-03-17T11:44:50.796Z,100018.72
2023-03-17T11:47:41.783Z,100006.91
2023-03-17T11:50:29.001Z,99998.44
2023-03-17T11:53:27.567Z,99995.97
2023-03-17T11:56:06.261Z,99989.25
2023-03-17T11:58:41.380Z,99984.94
2023-03-17T12:01:16.026Z,99984.75
2023-03-17T12:03:49.816Z,99987.94
2023-03-17T12:06:23.382Z,99970.78
2023-03-17T12:09:00.264Z,99959.75
2023-03-17T12:11:35.850Z,99947.94
2023-03-17T12:14:11.496Z,99959.66
2023-03-17T12:16:49.484Z,99953.53
2023-03-17T12:19:19.760Z,99965.75
2023-03-17T12:21:53.085Z,99962.50
2023-03-17T12:24:24.953Z,99952.66
2023-03-17T12:27:00.534Z,99951.09
2023-03-17T12:29:51.727Z,99944.88
2023-03-17T12:32:29.519Z,99938.19
2023-03-17T12:34:58.949Z,99946.56
2023-03-17T12:37:28.293Z,99936.50
2023-03-17T12:40:02.595Z,99929.78
2023-03-17T12:42:58.249Z,99931.72
2023-03-17T12:45:41.324Z,99932.22
2023-03-17T12:48:36.881Z,99941.34
2023-03-17T12:51:29.971Z,99924.22
2023-03-17T12:53:59.575Z,99924.31
2023-03-17T12:56:30.819Z,99921.28
2023-03-17T12:59:08.681Z,99913.09
2023-03-17T13:01:58.785Z,99909.19
2023-03-17T13:04:31.308Z,99915.28
2023-03-17T13:07:15.779Z,99917.69
2023-03-17T13:09:53.410Z,99908.28
2023-03-17T13:12:42.098Z,99914.44
2023-03-17T13:15:21.447Z,99907.22
2023-03-17T13:17:48.588Z,99904.94
2023-03-17T13:20:37.825Z,99904.81
2023-03-17T13:23:10.769Z,99901.37
2023-03-17T13:25:38.300Z,99899.00
2023-03-17T13:28:15.207Z,99897.34
2023-03-17T13:30:56.017Z,99891.91
2023-03-17T13:33:30.708Z,99887.50
2023-03-17T13:36:30.570Z,99885.63
2023-03-17T13:39:19.303Z,99894.00
2023-03-17T13:42:18.715Z,99898.69
2023-03-17T13:45:06.363Z,99901.50
2023-03-17T13:47:38.354Z,99898.22
2023-03-17T13:50:25.486Z,99888.97
2023-03-17T13:52:57.636Z,99896.84
2023-03-17T13:55:24.776Z,99889.91
2023-03-17T13:58:16.454Z,99883.84
2023-03-17T14:00:48.999Z,99878.00
2023-03-17T14:03:34.126Z,99880.19
2023-03-17T14:06:06.529Z,99873.69
2023-03-17T14:08:37.512Z,99875.69
2023-03-17T14:11:19.277Z,99871.91
2023-03-17T14:14:36.640Z,99862.38
2023-03-17T14:17:19.116Z,99864.78
2023-03-17T14:20:22.371Z,99857.44
2023-03-17T14:23:00.545Z,99857.16
2023-03-17T14:25:36.596Z,99850.91
2023-03-17T14:28:12.872Z,99847.94
2023-03-17T14:30:40.373Z,99843.75
2023-03-17T14:33:22.970Z,99841.66
2023-03-17T14:35:53.141Z,99834.34
2023-03-17T14:38:26.185Z,99833.72
2023-03-17T14:41:21.178Z,99825.94
2023-03-17T14:43:50.331Z,99822.81
2023-03-17T14:46:30.678Z,99822.97
2023-03-17T14:49:15.400Z,99822.25
2023-03-17T14:51:43.446Z,99812.94
2023-03-17T14:54:24.253Z,99812.56
2023-03-17T14:57:02.343Z,99800.91
2023-03-17T14:59:35.224Z,99803.41
2023-03-17T15:02:23.208Z,99799.97
2023-03-17T15:04:53.636Z,99796.06
2023-03-17T15:07:38.396Z,99790.78
2023-03-17T15:10:06.734Z,99790.47
2023-03-17T15:12:34.517Z,99789.06
2023-03-17T15:15:13.361Z,99790.31
2023-03-17T15:17:40.734Z,99792.28
2023-03-17T15:20:16.344Z,99788.59
2023-03-17T15:22:49.546Z,99777.75
2023-03-17T15:25:20.197Z,99776.31
2023-03-17T15:27:48.285Z,99772.06
2023-03-17T15:30:16.162Z,99766.91
2023-03-17T15:32:43.785Z,99767.81
2023-03-17T15:35:13.487Z,99761.78
2023-03-17T15:37:43.041Z,99764.25
2023-03-17T15:40:11.184Z,99762.13
2023-03-17T15:42:39.689Z,99764.97
2023-03-17T15:45:07.858Z,99763.69
2023-03-17T15:47:39.977Z,99756.50
2023-03-17T15:50:31.434Z,99755.72
2023-03-17T15:52:59.031Z,99755.50
2023-03-17T15:55:32.132Z,99756.69
2023-03-17T15:58:00.396Z,99758.06
2023-03-17T16:00:30.032Z,99755.06
2023-03-17T16:03:02.112Z,99757.41
2023-03-17T16:05:34.281Z,99750.88
2023-03-17T16:08:02.315Z,99757.50
2023-03-17T16:10:32.120Z,99767.47
2023-03-17T16:12:59.700Z,99763.78
2023-03-17T16:15:33.741Z,99760.69
2023-03-17T16:18:04.298Z,99762.94
2023-03-17T16:20:52.309Z,99760.50
2023-03-17T16:23:23.713Z,99761.59
2023-03-17T16:25:51.751Z,99758.75
2023-03-17T16:28:23.877Z,99762.34
2023-03-17T16:30:52.705Z,99756.00
2023-03-17T16:33:24.217Z,99753.66
2023-03-17T16:35:53.397Z,99758.69
2023-03-17T16:38:25.514Z,99762.66
2023-03-17T16:40:55.118Z,99767.25
2023-03-17T16:43:30.950Z,99766.81
2023-03-17T16:46:00.123Z,99768.97
2023-03-17T16:48:27.380Z,99767.50
2023-03-17T16:50:55.397Z,99763.66
2023-03-17T16:53:23.624Z,99778.22
2023-03-17T16:55:54.477Z,99775.94
2023-03-17T16:58:23.280Z,99771.63
2023-03-17T17:00:53.799Z,99766.94
2023-03-17T17:03:21.080Z,99769.03
2023-03-17T17:05:48.271Z,99771.91
2023-03-17T17:08:15.847Z,99773.19
2023-03-17T17:10:43.016Z,99776.09
2023-03-17T17:13:12.078Z,99775.22
2023-03-17T17:15:39.753Z,99771.16
2023-03-17T17:18:11.392Z,99767.03
2023-03-17T17:20:40.353Z,99779.34
2023-03-17T17:23:12.205Z,99767.34
2023-03-17T17:25:39.773Z,99760.47
2023-03-17T17:28:07.591Z,99753.75
2023-03-17T17:30:35.923Z,99763.66
2023-03-17T17:33:04.014Z,99761.38
2023-03-17T17:35:33.136Z,99766.91
2023-03-17T17:38:02.530Z,99765.56
2023-03-17T17:40:30.966Z,99763.38
2023-03-17T17:42:58.376Z,99764.53
2023-03-17T17:45:26.229Z,99764.69
2023-03-17T17:47:53.447Z,99762.34
2023-03-17T17:50:25.707Z,99765.09
2023-03-17T17:52:53.534Z,99766.97
2023-03-17T17:55:20.754Z,99770.78
2023-03-17T17:57:48.070Z,99769.25
2023-03-17T18:00:17.239Z,99764.25
2023-03-17T18:02:45.428Z,99766.25
2023-03-17T18:05:13.252Z,99760.25
2023-03-17T18:07:40.950Z,99764.81
2023-03-17T18:10:15.953Z,99760.53
2023-03-17T18:12:43.194Z,99765.06
2023-03-17T18:15:11.299Z,99762.59
2023-03-17T18:17:38.552Z,99768.91
2023-03-17T18:20:07.137Z,99766.28
2023-03-17T18:22:35.058Z,99775.16
2023-03-17T18:25:02.379Z,99769.28
2023-03-17T18:27:29.499Z,99765.03
2023-03-17T18:29:58.664Z,99762.50
2023-03-17T18:32:27.874Z,99765.31
2023-03-17T18:34:58.566Z,99768.12
2023-03-17T18:37:26.256Z,99769.12
2023-03-17T18:40:11.996Z,99763.03
2023-03-17T18:42:41.607Z,99766.81
2023-03-17T18:45:13.351Z,99779.69
2023-03-17T18:47:41.896Z,99771.06
2023-03-17T18:50:12.193Z,99772.19
2023-03-17T18:52:41.191Z,99774.09
2023-03-17T18:55:10.156Z,99770.69
2023-03-17T18:57:37.660Z,99770.63
2023-03-17T19:00:05.825Z,99771.69
2023-03-17T19:02:33.390Z,99771.81
2023-03-17T19:05:01.065Z,99772.66
2023-03-17T19:07:28.309Z,99776.19
2023-03-17T19:09:55.888Z,99763.28
2023-03-17T19:12:23.893Z,99765.03
2023-03-17T19:14:51.080Z,99766.59
2023-03-17T19:17:18.526Z,99765.88
2023-03-17T19:19:45.584Z,99767.31
2023-03-17T19:22:12.918Z,99759.25
2023-03-17T19:24:41.203Z,99759.19
2023-03-17T19:27:08.774Z,99754.25
2023-03-17T19:29:35.987Z,99758.63
2023-03-17T19:32:03.886Z,99755.16
2023-03-17T19:34:30.908Z,99761.34
2023-03-17T19:36:57.956Z,99757.97
2023-03-17T19:39:26.044Z,99752.66
2023-03-17T19:41:55.207Z,99759.78
2023-03-17T19:44:22.682Z,99752.28
2023-03-17T19:46:51.155Z,99753.31
2023-03-17T19:49:21.065Z,99752.59
2023-03-17T19:51:49.127Z,99750.25
2023-03-17T19:54:16.807Z,99750.25
2023-03-17T19:56:44.349Z,99748.44
2023-03-17T19:59:11.497Z,99745.09
2023-03-17T20:01:38.987Z,99737.31
2023-03-17T20:04:07.281Z,99735.66
2023-03-17T20:06:34.724Z,99732.88
2023-03-17T20:09:05.776Z,99731.94
2023-03-17T20:11:34.096Z,99734.44
2023-03-17T20:14:02.197Z,99730.19
2023-03-17T20:16:33.496Z,99728.38
2023-03-17T20:19:02.193Z,99733.59
2023-03-17T20:21:29.547Z,99731.03
2023-03-17T20:23:57.047Z,99735.47
2023-03-17T20:26:24.588Z,99736.38
2023-03-17T20:28:51.831Z,99736.47
2023-03-17T20:31:19.342Z,99731.16
2023-03-17T20:33:46.845Z,99733.44
2023-03-17T20:36:14.190Z,99726.59
2023-03-17T20:38:43.650Z,99733.66
2023-03-17T20:41:17.224Z,99727.44
2023-03-17T20:43:46.039Z,99731.81
2023-03-17T20:46:19.531Z,99723.78
2023-03-17T20:48:51.839Z,99722.16
2023-03-17T20:51:20.008Z,99726.53
2023-03-17T20:53:49.011Z,99720.41
2023-03-17T20:56:19.723Z,99718.81
2023-03-17T20:58:48.479Z,99718.03
2023-03-17T21:01:20.715Z,99725.19
2023-03-17T21:03:49.403Z,99720.06
2023-03-17T21:06:17.579Z,99722.66
2023-03-17T21:08:46.145Z,99723.31
2023-03-17T21:11:17.867Z,99715.34
2023-03-17T21:13:45.180Z,99710.97
2023-03-17T21:16:18.891Z,99711.63
2023-03-17T21:18:46.570Z,99713.34
2023-03-17T21:21:14.234Z,99702.34
2023-03-17T21:23:41.755Z,99703.91
2023-03-17T21:26:09.644Z,99699.66
2023-03-17T21:28:41.232Z,99706.53
2023-03-17T21:31:10.134Z,99700.66
2023-03-17T21:33:37.442Z,99702.41
2023-03-17T21:36:05.720Z,99705.94
2023-03-17T21:38:33.248Z,99711.37
2023-03-17T21:41:37.866Z,99713.13
2023-03-17T21:44:06.948Z,99709.00
2023-03-17T21:46:33.983Z,99705.72
2023-03-17T21:49:01.567Z,99711.81
2023-03-17T21:51:29.650Z,99710.94
2023-03-17T21:53:57.979Z,99711.94
2023-03-17T21:56:25.207Z,99716.19
2023-03-17T21:58:52.612Z,99714.31
2023-03-17T22:01:21.744Z,99712.75
2023-03-17T22:03:50.408Z,99713.63
2023-03-17T22:06:18.763Z,99718.78
2023-03-17T22:08:47.947Z,99718.78
2023-03-17T22:11:18.533Z,99711.91
2023-03-17T22:13:46.189Z,99719.87
2023-03-17T22:16:14.920Z,99720.63
2023-03-17T22:18:42.835Z,99718.91
2023-03-17T22:21:10.905Z,99722.62
2023-03-17T22:23:42.323Z,99718.16
2023-03-17T22:26:16.709Z,99717.50
2023-03-17T22:28:48.337Z,99720.16
2023-03-17T22:31:24.379Z,99711.44
2023-03-17T22:33:55.024Z,99717.59
2023-03-17T22:36:23.704Z,99708.81
2023-03-17T22:38:50.995Z,99702.44
2023-03-17T22:41:21.798Z,99705.78
2023-03-17T22:43:49.704Z,99698.63
2023-03-17T22:46:17.573Z,99701.38
2023-03-17T22:48:46.201Z,99699.47
2023-03-17T22:51:16.960Z,99693.63
2023-03-17T22:53:44.284Z,99691.75
2023-03-17T22:56:12.783Z,99701.34
2023-03-17T22:58:41.062Z,99696.47
2023-03-17T23:01:08.875Z,99695.59
2023-03-17T23:03:36.516Z,99701.66
2023-03-17T23:06:05.492Z,99692.00
2023-03-17T23:08:35.394Z,99684.28
2023-03-17T23:11:05.701Z,99695.66
2023-03-17T23:13:33.951Z,99687.97
2023-03-17T23:16:02.966Z,99686.28
2023-03-17T23:18:30.591Z,99688.09
2023-03-17T23:20:58.845Z,99687.19
2023-03-17T23:23:25.965Z,99691.25
2023-03-17T23:25:53.795Z,99684.34
2023-03-17T23:28:21.230Z,99691.34
2023-03-17T23:30:48.364Z,99689.56
2023-03-17T23:33:17.424Z,99691.50
2023-03-17T23:35:46.146Z,99687.19
2023-03-17T23:38:13.509Z,99678.38
2023-03-17T23:40:41.271Z,99672.38
2023-03-17T23:43:08.650Z,99674.19
2023-03-17T23:45:35.738Z,99684.72
2023-03-17T23:48:02.975Z,99679.41
2023-03-17T23:50:31.889Z,99683.03
2023-03-17T23:52:59.177Z,99683.06
2023-03-17T23:55:26.340Z,99689.34
2023-03-17T23:57:54.741Z,99680.72
